Time;durP1;ratioP1;P1;durP2;ratioP2;P2;SDS_P1;SDS_P2;PMS_P1;PMS_P2;Temp;Humidity;BMP_temperature;BMP_pressure;BME280_temperature;BME280_humidity;BME280_pressure;Samples;Min_cycle;Max_cycle;Signal;HPM_P1;HPM_P2
2021/05/18 00:00:08;;;;;;;7.30;1.60;;;;;;;9.82;63.45;100811.28;347930;28;1065;-62
2021/05/18 00:00:21;;;;;;;5.30;1.48;;;;;;;9.75;62.79;100809.84;345672;28;71659;-63
2021/05/18 00:00:34;;;;;;;4.95;1.30;;;;;;;9.80;62.63;100815.78;347045;28;25735;-63
2021/05/18 00:00:54;;;;;;;8.07;1.63;;;;;;;9.88;63.66;100813.69;347014;28;71890;-62
2021/05/18 00:01:07;;;;;;;8.32;1.62;;;;;;;9.82;63.44;100813.94;349399;28;1279;-63
2021/05/18 00:01:19;;;;;;;8.65;1.58;;;;;;;9.83;64.22;100813.03;349116;28;1353;-62
2021/05/18 00:01:31;;;;;;;8.70;1.63;;;;;;;9.85;62.86;100822.59;349167;28;1698;-61
2021/05/18 00:01:43;;;;;;;9.18;1.95;;;;;;;9.90;63.25;100819.75;348661;28;1953;-61
2021/05/18 00:01:54;;;;;;;10.25;2.10;;;;;;;9.93;63.63;100809.06;349372;28;1042;-63
2021/05/18 00:02:06;;;;;;;9.85;2.20;;;;;;;9.96;62.90;100816.84;349397;28;1170;-62
2021/05/18 00:02:18;;;;;;;7.78;1.90;;;;;;;9.98;62.98;100806.22;347922;28;1128;-62
2021/05/18 00:02:29;;;;;;;6.85;1.50;;;;;;;9.92;62.19;100815.28;347885;28;1006;-62
2021/05/18 00:02:41;;;;;;;6.20;1.33;;;;;;;9.89;62.54;100815.41;348204;28;1097;-62
2021/05/18 00:02:53;;;;;;;7.10;1.33;;;;;;;9.92;62.65;100819.66;349783;27;1237;-62
2021/05/18 00:03:07;;;;;;;10.32;1.90;;;;;;;9.96;63.84;100815.97;353774;27;1096;-62
2021/05/18 00:03:19;;;;;;;8.38;1.77;;;;;;;9.88;62.65;100812.81;353638;27;1277;-62
2021/05/18 00:03:31;;;;;;;8.05;1.90;;;;;;;9.92;63.26;100812.63;353621;27;1123;-62
2021/05/18 00:03:42;;;;;;;9.93;2.15;;;;;;;9.98;63.52;100809.72;353690;27;1125;-64
2021/05/18 00:03:54;;;;;;;11.30;2.28;;;;;;;10.05;63.35;100809.47;353831;27;1064;-63
2021/05/18 00:04:05;;;;;;;11.93;2.13;;;;;;;10.13;64.35;100816.09;353699;27;1107;-63
2021/05/18 00:04:17;;;;;;;11.30;2.17;;;;;;;10.21;63.81;100810.50;353746;27;1076;-62
2021/05/18 00:04:29;;;;;;;9.85;1.90;;;;;;;10.20;63.05;100808.78;353635;27;1135;-62
2021/05/18 00:04:41;;;;;;;10.15;1.77;;;;;;;10.12;62.99;100808.25;354436;27;1288;-62
2021/05/18 00:04:52;;;;;;;7.53;1.42;;;;;;;10.04;62.32;100813.84;355204;27;1129;-62
2021/05/18 00:05:07;;;;;;;7.03;1.30;;;;;;;10.04;62.69;100807.75;354315;27;1890;-63
2021/05/18 00:05:21;;;;;;;8.48;1.65;;;;;;;10.09;63.58;100808.41;353229;27;46732;-62
2021/05/18 00:05:35;;;;;;;9.73;2.22;;;;;;;10.12;62.72;100811.75;352785;27;23892;-62
2021/05/18 00:05:50;;;;;;;10.43;2.38;;;;;;;10.19;63.29;100818.50;353030;27;23990;-64
2021/05/18 00:06:03;;;;;;;10.82;2.17;;;;;;;10.17;63.09;100812.41;351076;27;72058;-62
2021/05/18 00:06:18;;;;;;;7.95;1.60;;;;;;;10.01;62.38;100811.38;352051;27;47866;-62
2021/05/18 00:06:31;;;;;;;7.72;1.42;;;;;;;9.98;63.22;100815.00;354949;27;1072;-62
2021/05/18 00:06:43;;;;;;;8.27;1.55;;;;;;;10.09;62.46;100811.88;355229;27;1040;-62
2021/05/18 00:06:54;;;;;;;9.14;1.60;;;;;;;10.17;63.41;100817.69;355099;27;1139;-62
2021/05/18 00:07:11;;;;;;;8.52;1.75;;;;;;;10.18;62.63;100815.91;355196;27;1159;-62
2021/05/18 00:07:23;;;;;;;8.57;1.80;;;;;;;10.19;62.88;100807.94;352116;27;69803;-61
2021/05/18 00:07:38;;;;;;;8.98;1.75;;;;;;;10.27;63.50;100818.13;353802;27;1076;-62
2021/05/18 00:08:09;;;;;;;7.78;1.60;;;;;;;10.06;62.32;100813.81;350923;28;47969;-62
2021/05/18 00:08:23;;;;;;;7.68;1.50;;;;;;;10.08;63.20;100806.69;351052;27;71014;-62
2021/05/18 00:11:43;;;;;;;9.52;1.80;;;;;;;10.14;63.43;100816.97;350462;27;95185;-63
2021/05/18 00:11:46;;;;;;;8.52;1.50;;;;;;;10.11;62.52;100819.72;351170;27;72838;-62
2021/05/18 00:11:58;;;;;;;7.60;1.42;;;;;;;10.09;62.19;100824.22;354087;27;1989;-62
2021/05/18 00:12:09;;;;;;;9.48;1.83;;;;;;;10.10;62.58;100818.03;353875;27;1941;-62
2021/05/18 00:12:21;;;;;;;10.68;1.90;;;;;;;10.12;62.58;100816.19;354535;27;1089;-62
2021/05/18 00:12:34;;;;;;;11.18;1.95;;;;;;;10.13;63.31;100813.47;354788;27;1333;-62
2021/05/18 00:12:45;;;;;;;10.75;2.00;;;;;;;10.18;62.47;100821.19;353719;27;1076;-62
2021/05/18 00:12:57;;;;;;;9.95;1.85;;;;;;;10.12;62.74;100816.19;353646;27;1224;-62
2021/05/18 00:13:09;;;;;;;7.95;1.50;;;;;;;10.18;64.04;100811.50;354403;27;1094;-63
2021/05/18 00:13:22;;;;;;;7.78;1.73;;;;;;;10.25;63.37;100811.19;355196;27;1239;-63
2021/05/18 00:13:36;;;;;;;9.57;2.00;;;;;;;10.32;63.81;100815.31;354958;27;1168;-63
2021/05/18 00:13:51;;;;;;;8.96;2.00;;;;;;;10.38;63.35;100816.84;355121;27;1219;-63
2021/05/18 00:14:03;;;;;;;8.68;2.00;;;;;;;10.32;63.00;100810.03;353337;27;48732;-62
2021/05/18 00:14:22;;;;;;;10.40;2.20;;;;;;;10.32;63.28;100817.94;354129;27;1080;-62
2021/05/18 00:14:35;;;;;;;10.13;2.10;;;;;;;10.25;62.44;100819.13;351146;27;71742;-62
2021/05/18 00:14:47;;;;;;;10.32;2.13;;;;;;;10.30;63.21;100817.13;353872;27;1906;-63
2021/05/18 00:15:01;;;;;;;9.90;2.17;;;;;;;10.32;62.87;100815.31;352150;27;1260;-63
2021/05/18 00:15:15;;;;;;;9.23;1.90;;;;;;;10.31;62.91;100811.78;352463;27;24171;-62
2021/05/18 00:15:27;;;;;;;9.65;2.03;;;;;;;10.25;62.85;100819.13;352437;27;23859;-62
2021/05/18 00:15:39;;;;;;;10.02;2.22;;;;;;;10.15;62.41;100819.56;353580;27;1207;-63
2021/05/18 00:15:54;;;;;;;9.70;2.10;;;;;;;10.09;61.64;100821.59;352651;27;1112;-62
2021/05/18 00:16:08;;;;;;;7.88;1.73;;;;;;;10.07;63.16;100821.66;349764;28;72061;-63
2021/05/18 00:16:20;;;;;;;6.95;1.30;;;;;;;10.07;63.03;100820.78;352119;28;1294;-63
2021/05/18 00:16:32;;;;;;;7.18;1.60;;;;;;;9.98;63.05;100825.53;352099;28;1270;-62
2021/05/18 00:16:44;;;;;;;9.00;1.80;;;;;;;10.02;63.08;100821.00;352234;28;1065;-62
2021/05/18 00:16:56;;;;;;;9.43;1.85;;;;;;;9.97;62.43;100815.94;352558;27;1204;-62
2021/05/18 00:17:07;;;;;;;8.93;1.65;;;;;;;9.94;63.53;100821.31;354711;27;1320;-62
2021/05/18 00:17:19;;;;;;;7.25;1.58;;;;;;;9.89;62.55;100825.97;354906;27;2119;-62
2021/05/18 00:17:32;;;;;;;7.88;1.50;;;;;;;9.95;62.81;100822.19;353272;28;1140;-62
2021/05/18 00:17:44;;;;;;;8.10;1.65;;;;;;;10.00;63.12;100828.13;353447;28;1228;-62
2021/05/18 00:17:56;;;;;;;9.27;1.75;;;;;;;10.00;63.21;100822.84;352306;28;1480;-62
2021/05/18 00:18:08;;;;;;;9.70;1.98;;;;;;;10.05;63.62;100823.50;353290;27;1531;-63
2021/05/18 00:18:19;;;;;;;9.02;2.00;;;;;;;10.07;63.61;100818.16;353689;27;1306;-62
2021/05/18 00:18:32;;;;;;;7.63;1.90;;;;;;;10.08;62.83;100826.00;353432;27;1096;-62
2021/05/18 00:18:44;;;;;;;8.27;1.73;;;;;;;10.10;62.90;100826.81;353003;27;1248;-62
2021/05/18 00:18:56;;;;;;;8.00;1.50;;;;;;;10.07;62.79;100818.16;352147;28;1156;-63
2021/05/18 00:19:07;;;;;;;5.82;1.40;;;;;;;9.99;62.25;100815.88;352132;28;1081;-63
2021/05/18 00:19:20;;;;;;;6.18;1.40;;;;;;;10.04;62.72;100828.84;351889;28;1939;-62
2021/05/18 00:19:31;;;;;;;6.57;1.60;;;;;;;10.02;63.40;100821.00;353880;27;1218;-62
2021/05/18 00:19:43;;;;;;;7.65;1.80;;;;;;;10.05;63.23;100820.84;353731;27;1139;-62
2021/05/18 00:19:55;;;;;;;8.10;1.92;;;;;;;10.10;62.91;100821.53;353754;27;1052;-61
2021/05/18 00:20:09;;;;;;;7.18;2.00;;;;;;;10.18;63.90;100824.69;353725;27;1084;-62
2021/05/18 00:20:21;;;;;;;9.25;2.70;;;;;;;10.22;62.78;100822.78;352100;27;47628;-61
2021/05/18 00:20:35;;;;;;;10.65;2.85;;;;;;;10.28;63.84;100819.84;354829;27;1198;-61
2021/05/18 00:20:47;;;;;;;9.77;2.40;;;;;;;10.17;62.21;100819.47;354415;27;23849;-61
2021/05/18 00:20:58;;;;;;;9.10;2.03;;;;;;;10.09;62.30;100821.59;354887;27;1324;-62
2021/05/18 00:21:10;;;;;;;7.55;1.60;;;;;;;9.97;63.25;100828.25;355183;27;1166;-62
2021/05/18 00:21:22;;;;;;;8.60;1.60;;;;;;;9.98;62.14;100825.53;353638;27;1101;-62
2021/05/18 00:21:35;;;;;;;9.35;1.70;;;;;;;10.05;63.25;100825.28;349351;28;1139;-62
2021/05/18 00:21:46;;;;;;;10.55;2.03;;;;;;;10.05;63.26;100814.75;349479;28;1152;-62
2021/05/18 00:21:58;;;;;;;7.63;1.75;;;;;;;9.88;63.60;100818.09;348937;28;1948;-62
2021/05/18 00:22:10;;;;;;;6.15;1.35;;;;;;;9.85;63.06;100809.41;350433;28;1455;-65
2021/05/18 00:22:22;;;;;;;5.07;1.50;;;;;;;9.89;63.07;100815.41;349395;28;1052;-62
2021/05/18 00:22:34;;;;;;;6.43;2.00;;;;;;;9.93;63.04;100816.13;349793;28;1094;-62
2021/05/18 00:22:46;;;;;;;8.45;1.92;;;;;;;9.99;63.51;100821.16;350691;28;1906;-62
2021/05/18 00:22:58;;;;;;;10.27;1.90;;;;;;;10.08;63.08;100819.88;350611;28;1133;-62
2021/05/18 00:23:11;;;;;;;10.77;2.00;;;;;;;10.11;63.19;100823.25;350836;28;1299;-62
2021/05/18 00:23:23;;;;;;;9.85;2.20;;;;;;;10.15;62.32;100830.09;351664;28;1213;-62
2021/05/18 00:23:36;;;;;;;10.30;2.03;;;;;;;10.22;62.81;100821.91;353939;27;2057;-62
2021/05/18 00:23:48;;;;;;;9.60;1.85;;;;;;;10.25;63.26;100825.28;354196;27;23055;-62
2021/05/18 00:23:59;;;;;;;9.25;1.90;;;;;;;10.21;62.02;100820.19;355074;27;1125;-62
2021/05/18 00:24:12;;;;;;;5.68;1.48;;;;;;;9.99;62.19;100823.78;354302;27;1281;-62
2021/05/18 00:24:23;;;;;;;3.38;1.02;;;;;;;9.93;63.08;100811.72;353619;27;1209;-62
2021/05/18 00:24:35;;;;;;;4.13;1.15;;;;;;;9.97;63.19;100823.84;352211;28;1146;-61
2021/05/18 00:24:47;;;;;;;8.20;1.48;;;;;;;9.97;62.98;100818.56;350971;28;1999;-62
2021/05/18 00:24:58;;;;;;;8.90;1.55;;;;;;;10.00;63.47;100823.72;351485;28;1105;-61
2021/05/18 00:25:11;;;;;;;9.74;1.76;;;;;;;10.11;63.58;100825.00;352002;28;1219;-62
2021/05/18 00:25:23;;;;;;;9.80;1.98;;;;;;;10.19;64.41;100820.25;350676;28;1281;-62
2021/05/18 00:25:35;;;;;;;9.32;1.90;;;;;;;10.20;63.04;100819.34;351359;28;1266;-62
2021/05/18 00:25:47;;;;;;;9.38;1.80;;;;;;;10.23;63.34;100819.19;351295;28;1130;-62
2021/05/18 00:25:58;;;;;;;9.57;1.80;;;;;;;10.29;64.13;100825.97;350718;28;1118;-62
2021/05/18 00:26:11;;;;;;;10.35;2.20;;;;;;;10.24;62.23;100825.34;350853;28;1134;-62
2021/05/18 00:26:23;;;;;;;9.63;2.13;;;;;;;10.23;61.98;100829.75;350672;28;1122;-62
2021/05/18 00:26:35;;;;;;;9.23;1.98;;;;;;;10.25;63.14;100827.03;351418;28;1157;-62
2021/05/18 00:26:47;;;;;;;8.50;1.85;;;;;;;10.17;62.45;100825.59;353030;27;1127;-62
2021/05/18 00:27:03;;;;;;;8.32;1.80;;;;;;;10.09;62.19;100824.22;353655;27;1139;-62
2021/05/18 00:27:19;;;;;;;8.63;1.88;;;;;;;10.07;62.17;100826.06;351503;27;71063;-62
2021/05/18 00:27:31;;;;;;;7.75;2.05;;;;;;;10.09;63.97;100825.09;351904;27;72218;-62
2021/05/18 00:27:43;;;;;;;8.98;2.30;;;;;;;10.16;63.77;100820.41;353651;27;1209;-62
2021/05/18 00:27:55;;;;;;;9.18;2.38;;;;;;;10.25;63.65;100811.19;353747;27;1072;-62
2021/05/18 00:28:06;;;;;;;9.00;2.22;;;;;;;10.31;63.85;100822.34;353786;27;1085;-62
2021/05/18 00:28:18;;;;;;;9.25;2.15;;;;;;;10.28;62.20;100825.13;353646;27;1108;-62
2021/05/18 00:28:30;;;;;;;11.15;2.13;;;;;;;10.27;63.15;100831.31;353487;27;1088;-62
2021/05/18 00:28:42;;;;;;;11.73;2.22;;;;;;;10.24;62.17;100828.84;353692;27;1232;-62
2021/05/18 00:28:54;;;;;;;10.13;2.10;;;;;;;10.14;62.44;100830.19;353711;27;1330;-62
2021/05/18 00:29:08;;;;;;;6.57;1.77;;;;;;;10.00;63.02;100823.72;355139;27;1130;-61
2021/05/18 00:29:19;;;;;;;5.30;1.50;;;;;;;10.03;63.84;100820.09;354279;27;25401;-62
2021/05/18 00:29:32;;;;;;;7.55;1.75;;;;;;;10.11;63.16;100828.53;354155;27;1052;-62
2021/05/18 00:29:43;;;;;;;7.68;1.77;;;;;;;9.95;62.47;100841.50;353637;27;1020;-62
2021/05/18 00:29:56;;;;;;;7.07;1.70;;;;;;;9.88;63.38;100832.16;353758;27;1208;-62
2021/05/18 00:30:10;;;;;;;5.90;1.38;;;;;;;9.86;63.66;100833.97;353612;27;2227;-63
2021/05/18 00:30:23;;;;;;;6.03;1.30;;;;;;;9.78;63.74;100833.44;352854;27;24472;-62
2021/05/18 00:30:35;;;;;;;5.55;1.45;;;;;;;9.74;63.62;100826.59;353628;27;1111;-62
2021/05/18 00:30:47;;;;;;;5.95;1.60;;;;;;;9.80;63.87;100826.34;353749;27;1135;-61
2021/05/18 00:30:59;;;;;;;5.90;1.40;;;;;;;9.84;63.69;100828.78;353621;27;1203;-63
2021/05/18 00:31:10;;;;;;;4.90;1.35;;;;;;;9.75;63.29;100833.59;353654;27;1116;-63
2021/05/18 00:31:22;;;;;;;5.95;1.48;;;;;;;9.78;63.76;100829.06;353796;27;1104;-63
2021/05/18 00:31:34;;;;;;;8.35;1.80;;;;;;;9.85;63.98;100827.88;353537;27;1126;-63
2021/05/18 00:31:46;;;;;;;9.50;1.67;;;;;;;9.91;63.50;100823.25;353594;27;1041;-61
2021/05/18 00:31:58;;;;;;;8.55;1.60;;;;;;;10.01;63.80;100830.72;351930;28;1085;-62
2021/05/18 00:32:09;;;;;;;7.05;1.58;;;;;;;10.02;62.74;100827.13;352452;28;1167;-63
2021/05/18 00:32:21;;;;;;;8.55;1.80;;;;;;;10.09;63.71;100829.50;353506;27;1218;-64
2021/05/18 00:32:33;;;;;;;9.98;1.80;;;;;;;10.15;64.01;100826.59;352639;27;1406;-62
2021/05/18 00:32:45;;;;;;;11.65;2.10;;;;;;;10.19;64.21;100826.41;352944;27;1306;-64
2021/05/18 00:32:56;;;;;;;12.40;2.00;;;;;;;10.24;63.12;100825.34;353281;27;1190;-63
2021/05/18 00:33:13;;;;;;;11.60;1.92;;;;;;;10.32;64.37;100826.72;353510;27;1120;-63
2021/05/18 00:33:25;;;;;;;8.00;1.83;;;;;;;10.35;64.53;100820.47;351144;27;72037;-63
2021/05/18 00:33:37;;;;;;;7.78;1.80;;;;;;;10.08;62.55;100826.00;353634;27;1143;-65
2021/05/18 00:33:49;;;;;;;7.80;1.55;;;;;;;9.95;63.28;100830.97;352844;27;1150;-63
2021/05/18 00:34:01;;;;;;;7.93;1.35;;;;;;;9.95;62.76;100828.31;353315;27;1316;-63
2021/05/18 00:34:13;;;;;;;8.95;1.58;;;;;;;10.07;64.38;100828.72;355212;27;1129;-65
2021/05/18 00:34:25;;;;;;;8.75;1.70;;;;;;;10.17;64.15;100824.75;354223;27;1953;-63
2021/05/18 00:34:37;;;;;;;7.57;1.85;;;;;;;10.19;63.39;100826.41;354271;27;1159;-65
2021/05/18 00:34:53;;;;;;;6.35;1.80;;;;;;;10.11;62.40;100830.28;355018;27;1124;-63
2021/05/18 00:35:08;;;;;;;6.75;1.67;;;;;;;10.04;63.45;100828.84;351096;27;72434;-63
2021/05/18 00:35:20;;;;;;;8.60;1.90;;;;;;;10.15;63.57;100832.75;352124;27;49314;-65
2021/05/18 00:35:32;;;;;;;9.90;1.92;;;;;;;10.21;62.97;100831.63;353642;27;1078;-63
2021/05/18 00:35:44;;;;;;;10.70;1.80;;;;;;;10.29;63.96;100829.50;353760;27;1285;-66
2021/05/18 00:35:56;;;;;;;11.73;1.90;;;;;;;10.34;64.42;100821.34;354851;27;1262;-63
2021/05/18 00:36:08;;;;;;;10.10;1.90;;;;;;;10.40;64.49;100831.69;355238;27;1095;-66
2021/05/18 00:36:19;;;;;;;8.43;2.00;;;;;;;10.43;64.17;100833.34;355225;27;1130;-65
2021/05/18 00:36:32;;;;;;;9.60;2.17;;;;;;;10.46;64.42;100825.28;354089;27;1211;-66
2021/05/18 00:36:43;;;;;;;10.62;2.18;;;;;;;10.52;64.72;100830.25;353618;27;2153;-63
2021/05/18 00:36:55;;;;;;;11.90;2.08;;;;;;;10.52;63.82;100819.69;353539;27;1114;-64
2021/05/18 00:37:07;;;;;;;11.13;1.85;;;;;;;10.40;62.70;100826.41;353983;27;1921;-63
2021/05/18 00:37:18;;;;;;;9.27;1.75;;;;;;;10.29;62.76;100825.97;354510;27;1068;-64
2021/05/18 00:37:30;;;;;;;7.60;1.60;;;;;;;10.15;62.23;100818.66;354484;27;1225;-67
2021/05/18 00:37:42;;;;;;;9.13;1.70;;;;;;;10.14;62.38;100828.38;353573;27;1187;-64
2021/05/18 00:37:55;;;;;;;10.38;1.85;;;;;;;10.19;62.17;100822.88;353612;27;1155;-66
2021/05/18 00:38:06;;;;;;;8.25;1.83;;;;;;;10.23;63.12;100827.09;353740;27;1136;-63
2021/05/18 00:38:19;;;;;;;6.82;1.70;;;;;;;10.32;63.22;100832.00;353781;27;1083;-64
2021/05/18 00:38:31;;;;;;;8.60;1.80;;;;;;;10.37;63.28;100833.59;353547;27;1096;-63
2021/05/18 00:38:43;;;;;;;9.45;1.90;;;;;;;10.30;62.23;100828.56;353409;27;1134;-64
2021/05/18 00:38:54;;;;;;;8.88;1.75;;;;;;;10.15;62.98;100827.47;353562;27;1047;-63
2021/05/18 00:39:06;;;;;;;8.23;1.40;;;;;;;9.94;62.70;100828.38;353445;27;1192;-68
2021/05/18 00:39:18;;;;;;;6.78;1.30;;;;;;;9.91;63.05;100824.09;353615;27;1167;-62
2021/05/18 00:39:30;;;;;;;8.63;1.30;;;;;;;9.90;63.64;100827.66;353375;27;1231;-63
2021/05/18 00:39:42;;;;;;;8.05;1.40;;;;;;;9.90;62.94;100827.66;353533;27;1168;-66
2021/05/18 00:39:53;;;;;;;7.95;1.52;;;;;;;9.98;63.36;100825.53;352124;28;1118;-66
2021/05/18 00:40:09;;;;;;;8.45;1.75;;;;;;;10.09;63.65;100821.59;350290;28;1901;-63
2021/05/18 00:40:21;;;;;;;10.40;1.92;;;;;;;10.18;63.44;100826.47;347183;28;94997;-67
2021/05/18 00:40:33;;;;;;;9.15;1.90;;;;;;;10.26;63.90;100826.13;350902;28;1309;-64
2021/05/18 00:40:46;;;;;;;11.43;2.03;;;;;;;10.12;62.92;100822.31;352188;28;1126;-66
2021/05/18 00:40:59;;;;;;;10.88;2.10;;;;;;;10.09;63.47;100821.59;349883;28;24045;-64
2021/05/18 00:41:11;;;;;;;9.75;2.10;;;;;;;10.08;63.00;100823.34;352046;28;1069;-64
2021/05/18 00:41:23;;;;;;;8.55;2.05;;;;;;;10.07;62.79;100816.38;352133;28;1224;-66
2021/05/18 00:41:34;;;;;;;8.48;2.20;;;;;;;10.13;64.02;100826.66;351976;28;1336;-62
2021/05/18 00:41:47;;;;;;;8.57;2.30;;;;;;;10.09;62.40;100827.72;352180;28;1030;-66
2021/05/18 00:41:59;;;;;;;9.40;2.30;;;;;;;10.02;63.25;100824.47;353653;27;1095;-63
2021/05/18 00:42:19;;;;;;;9.55;2.05;;;;;;;10.05;63.28;100820.00;354367;27;1107;-64
2021/05/18 00:42:31;;;;;;;9.35;1.90;;;;;;;10.14;63.11;100830.19;351196;27;71934;-61
2021/05/18 00:42:52;;;;;;;10.18;2.03;;;;;;;10.20;63.03;100819.34;355090;27;2043;-66
2021/05/18 00:43:03;;;;;;;10.43;2.00;;;;;;;10.25;62.45;100827.91;352540;27;71511;-66
2021/05/18 00:43:15;;;;;;;12.07;2.10;;;;;;;10.14;61.96;100817.81;353699;27;2143;-63
2021/05/18 00:43:27;;;;;;;10.20;2.00;;;;;;;9.96;62.39;100816.84;353791;27;1421;-67
2021/05/18 00:43:39;;;;;;;6.60;1.75;;;;;;;9.87;63.07;100833.06;353527;27;1963;-66
2021/05/18 00:43:51;;;;;;;5.13;1.58;;;;;;;9.86;63.70;100831.34;353697;27;1279;-63
2021/05/18 00:44:03;;;;;;;6.15;1.50;;;;;;;9.84;63.01;100834.06;353695;27;1124;-67
2021/05/18 00:44:15;;;;;;;7.53;1.55;;;;;;;9.85;63.27;100825.22;353370;27;1420;-63
2021/05/18 00:44:27;;;;;;;6.45;1.50;;;;;;;9.75;64.08;100830.94;353647;28;1134;-66
2021/05/18 00:44:41;;;;;;;5.93;1.50;;;;;;;9.79;63.66;100819.34;353682;27;1067;-66
2021/05/18 00:44:53;;;;;;;5.85;1.40;;;;;;;9.82;63.63;100824.47;352126;27;49464;-66
2021/05/18 00:45:05;;;;;;;6.15;1.42;;;;;;;9.80;64.13;100829.00;353608;27;1030;-62
2021/05/18 00:45:28;;;;;;;9.20;1.70;;;;;;;9.92;63.52;100824.94;353465;27;1057;-63
2021/05/18 00:45:42;;;;;;;12.05;2.10;;;;;;;10.04;63.64;100826.22;351270;27;70921;-63
2021/05/18 00:45:55;;;;;;;8.73;2.00;;;;;;;10.08;64.29;100827.78;352006;27;48841;-67
2021/05/18 00:46:07;;;;;;;10.15;2.10;;;;;;;10.15;64.80;100822.19;354172;27;1135;-64
2021/05/18 00:46:20;;;;;;;12.85;2.15;;;;;;;10.23;64.73;100826.25;354972;27;1282;-66
2021/05/18 00:46:32;;;;;;;12.30;1.95;;;;;;;10.23;63.95;100828.91;353554;27;1160;-62
2021/05/18 00:46:44;;;;;;;9.50;1.85;;;;;;;10.15;63.13;100830.09;352137;28;1564;-63
2021/05/18 00:46:56;;;;;;;8.28;1.90;;;;;;;10.11;63.21;100830.28;352789;27;1106;-64
2021/05/18 00:47:07;;;;;;;8.25;1.88;;;;;;;10.13;64.02;100836.38;353442;27;1127;-64
2021/05/18 00:47:19;;;;;;;8.40;1.65;;;;;;;9.92;62.82;100831.09;353587;27;1072;-65
2021/05/18 00:47:32;;;;;;;8.48;1.70;;;;;;;9.94;63.63;100823.97;353446;27;1045;-62
2021/05/18 00:47:43;;;;;;;6.68;1.65;;;;;;;9.99;64.21;100829.91;353458;27;1285;-63
2021/05/18 00:47:56;;;;;;;7.80;1.85;;;;;;;10.08;63.92;100830.44;353455;27;1205;-62
2021/05/18 00:48:09;;;;;;;7.35;1.70;;;;;;;9.97;63.66;100823.84;351981;28;1095;-66
2021/05/18 00:48:21;;;;;;;8.10;1.73;;;;;;;10.09;63.23;100826.88;352219;28;1064;-62
2021/05/18 00:48:33;;;;;;;9.57;1.98;;;;;;;10.05;63.63;100828.78;352091;28;1163;-65
2021/05/18 00:48:56;;;;;;;9.73;1.90;;;;;;;9.94;63.05;100836.31;352188;28;1114;-61
2021/05/18 00:49:09;;;;;;;6.64;1.32;;;;;;;9.64;63.26;100837.56;348925;28;94429;-61
2021/05/18 00:49:20;;;;;;;6.65;1.50;;;;;;;9.65;63.63;100839.25;351792;28;1586;-63
2021/05/18 00:49:32;;;;;;;7.78;2.65;;;;;;;9.65;64.24;100833.13;353002;27;1077;-64
2021/05/18 00:49:44;;;;;;;11.45;4.90;;;;;;;9.67;64.34;100834.78;350778;28;1092;-66
2021/05/18 00:49:55;;;;;;;10.45;4.97;;;;;;;9.62;64.81;100828.84;351229;28;1134;-63
2021/05/18 00:50:08;;;;;;;5.70;1.98;;;;;;;9.52;64.48;100838.06;352202;28;1209;-64
2021/05/18 00:50:20;;;;;;;6.95;1.67;;;;;;;9.55;63.80;100831.78;350792;28;1274;-66
2021/05/18 00:50:33;;;;;;;7.82;1.90;;;;;;;9.45;64.58;100833.94;349902;28;1228;-65
2021/05/18 00:51:09;;;;;;;6.82;1.73;;;;;;;9.65;65.06;100830.47;350775;28;1080;-63
2021/05/18 00:51:21;;;;;;;8.20;1.83;;;;;;;9.73;64.92;100833.66;345611;28;70734;-66
2021/05/18 00:51:33;;;;;;;9.40;2.03;;;;;;;9.82;65.05;100829.75;347795;28;1240;-63
2021/05/18 00:51:45;;;;;;;8.43;1.95;;;;;;;9.86;64.47;100828.72;348927;28;1070;-66
2021/05/18 00:51:57;;;;;;;9.27;1.85;;;;;;;9.81;64.63;100833.34;349052;28;1108;-63
2021/05/18 00:52:09;;;;;;;10.70;1.65;;;;;;;9.76;64.17;100837.94;347991;28;2005;-67
2021/05/18 00:52:20;;;;;;;10.75;1.50;;;;;;;9.80;64.52;100831.63;348804;28;1186;-64
2021/05/18 00:52:35;;;;;;;12.82;1.77;;;;;;;9.81;64.58;100828.91;349156;28;2193;-63
2021/05/18 00:52:47;;;;;;;10.57;2.03;;;;;;;9.92;65.02;100835.50;347398;28;48002;-63
2021/05/18 00:52:58;;;;;;;10.35;2.10;;;;;;;9.96;64.52;100826.53;349201;28;1354;-67
2021/05/18 00:53:12;;;;;;;10.18;1.95;;;;;;;9.83;63.36;100829.69;348850;28;1902;-67
2021/05/18 00:53:24;;;;;;;8.45;1.58;;;;;;;9.75;63.73;100836.22;348937;28;1299;-63
2021/05/18 00:53:37;;;;;;;8.40;1.60;;;;;;;9.81;64.54;100830.72;349235;28;2296;-66
2021/05/18 00:53:55;;;;;;;9.40;1.60;;;;;;;9.77;63.48;100837.03;346951;28;24024;-66
2021/05/18 00:54:14;;;;;;;5.28;1.10;;;;;;;9.74;64.07;100831.88;346912;28;72361;-66
2021/05/18 00:54:33;;;;;;;4.97;1.08;;;;;;;9.71;63.66;100837.28;346938;28;72196;-66
2021/05/18 00:54:59;;;;;;;6.35;1.35;;;;;;;9.62;63.99;100835.91;348165;28;70761;-64
2021/05/18 00:55:30;;;;;;;8.35;1.67;;;;;;;9.86;65.09;100839.25;348356;28;70475;-66
2021/05/18 00:58:33;;;;;;;9.90;2.20;;;;;;;9.96;65.11;100830.03;345426;28;72594;-62
2021/05/18 00:58:46;;;;;;;9.68;1.85;;;;;;;10.01;64.55;100835.13;344074;28;72435;-64
2021/05/18 00:59:01;;;;;;;10.38;1.95;;;;;;;9.91;64.35;100839.09;346431;28;1358;-64
2021/05/18 00:59:13;;;;;;;8.32;1.73;;;;;;;9.78;64.25;100822.91;346207;28;50236;-65
2021/05/18 00:59:24;;;;;;;7.38;1.63;;;;;;;9.73;63.63;100830.19;347838;28;1159;-63
2021/05/18 00:59:36;;;;;;;7.15;1.48;;;;;;;9.67;64.66;100837.41;347725;28;1223;-63
2021/05/18 00:59:49;;;;;;;7.82;1.52;;;;;;;9.65;64.18;100828.69;348033;28;1146;-65
2021/05/18 01:00:00;;;;;;;8.15;1.65;;;;;;;9.67;64.72;100832.13;347830;28;1268;-64
2021/05/18 01:00:12;;;;;;;8.82;1.70;;;;;;;9.73;64.98;100835.44;346362;28;1088;-61
2021/05/18 01:00:24;;;;;;;11.25;1.92;;;;;;;9.70;64.73;100832.91;346472;28;1240;-60
2021/05/18 01:00:36;;;;;;;12.27;2.03;;;;;;;9.67;64.27;100824.22;346490;28;1164;-61
2021/05/18 01:00:47;;;;;;;11.25;1.98;;;;;;;9.66;64.36;100835.69;346603;28;999;-61
2021/05/18 01:01:03;;;;;;;9.85;1.67;;;;;;;9.62;64.52;100834.09;345106;28;1064;-61
2021/05/18 01:01:18;;;;;;;7.82;1.70;;;;;;;9.67;65.31;100831.25;342592;28;72173;-64
2021/05/18 01:01:30;;;;;;;8.55;1.88;;;;;;;9.73;64.51;100838.09;344394;28;22522;-61
2021/05/18 01:01:42;;;;;;;8.32;1.80;;;;;;;9.74;63.76;100827.47;344725;28;1935;-63
2021/05/18 01:01:54;;;;;;;7.80;1.70;;;;;;;9.81;64.16;100833.34;343893;28;1069;-62
2021/05/18 01:02:05;;;;;;;8.57;1.63;;;;;;;9.84;63.87;100827.94;343698;28;1140;-62
2021/05/18 01:02:17;;;;;;;9.57;1.70;;;;;;;9.81;64.54;100836.84;345025;28;1188;-61
2021/05/18 01:02:28;;;;;;;6.57;1.45;;;;;;;9.75;64.67;100831.81;345109;28;1121;-61
2021/05/18 01:02:40;;;;;;;5.65;1.42;;;;;;;9.65;64.33;100835.75;345192;28;1225;-62
2021/05/18 01:02:52;;;;;;;6.72;1.40;;;;;;;9.55;64.93;100837.03;345208;28;1134;-61
2021/05/18 01:03:04;;;;;;;7.22;1.58;;;;;;;9.57;64.61;100833.44;346388;28;1137;-62
2021/05/18 01:03:15;;;;;;;9.23;1.77;;;;;;;9.60;65.22;100835.97;346470;28;1078;-61
2021/05/18 01:03:28;;;;;;;11.25;1.90;;;;;;;9.61;64.38;100836.81;345044;28;1022;-63
2021/05/18 01:03:40;;;;;;;9.60;1.55;;;;;;;9.61;64.16;100844.72;345245;28;1129;-61
2021/05/18 01:03:54;;;;;;;7.00;1.52;;;;;;;9.54;65.22;100830.09;343922;28;1065;-61
2021/05/18 01:04:05;;;;;;;7.97;1.77;;;;;;;9.55;65.36;100827.38;343713;28;1270;-61
2021/05/18 01:04:17;;;;;;;10.00;1.92;;;;;;;9.62;64.47;100828.84;343659;28;1446;-61
2021/05/18 01:04:29;;;;;;;11.07;2.10;;;;;;;9.71;65.26;100839.91;344352;28;1914;-61
2021/05/18 01:04:43;;;;;;;11.23;1.90;;;;;;;9.73;64.83;100830.19;344337;28;1322;-61
2021/05/18 01:05:08;;;;;;;11.52;1.92;;;;;;;9.80;64.25;100834.25;344225;28;23805;-62
2021/05/18 01:05:20;;;;;;;6.43;1.40;;;;;;;9.61;65.17;100829.75;341448;28;71918;-61
2021/05/18 01:06:50;;;;;;;8.27;1.50;;;;;;;9.55;64.66;100831.78;341344;28;72483;-61
2021/05/18 01:07:01;;;;;;;11.13;1.73;;;;;;;9.57;64.48;100830.78;343232;28;1910;-61
2021/05/18 01:07:14;;;;;;;10.52;1.85;;;;;;;9.57;64.94;100835.22;343804;28;1325;-61
2021/05/18 01:07:26;;;;;;;9.68;2.10;;;;;;;9.61;65.51;100839.44;343621;28;1110;-61
2021/05/18 01:07:38;;;;;;;9.10;2.03;;;;;;;9.61;64.91;100829.75;343531;28;1335;-63
2021/05/18 01:07:50;;;;;;;10.15;1.92;;;;;;;9.64;64.96;100829.63;343792;28;1200;-63
2021/05/18 01:08:02;;;;;;;10.52;1.80;;;;;;;9.63;64.88;100834.94;343380;28;1291;-62
2021/05/18 01:08:14;;;;;;;9.00;1.48;;;;;;;9.55;64.65;100835.28;343869;28;1066;-61
2021/05/18 01:08:26;;;;;;;7.18;1.05;;;;;;;9.51;65.44;100844.25;343660;28;1105;-60